sensor_id;sensor_type;location;lat;lon;timestamp;P1;durP1;ratioP1;P2;durP2;ratioP2
48987;SDS011;34799;51.440;-2.534;2023-10-09T00:02:07;9.70;;;4.00;;
48987;SDS011;34799;51.440;-2.534;2023-10-09T00:04:36;9.15;;;4.35;;
48987;SDS011;34799;51.440;-2.534;2023-10-09T00:07:03;10.60;;;4.10;;
48987;SDS011;34799;51.440;-2.534;2023-10-09T00:09:35;11.60;;;4.75;;
48987;SDS011;34799;51.440;-2.534;2023-10-09T00:12:14;9.02;;;4.35;;
48987;SDS011;34799;51.440;-2.534;2023-10-09T00:14:50;10.70;;;3.97;;
48987;SDS011;34799;51.440;-2.534;2023-10-09T00:17:21;13.52;;;4.60;;
48987;SDS011;34799;51.440;-2.534;2023-10-09T00:19:49;7.28;;;3.90;;
48987;SDS011;34799;51.440;-2.534;2023-10-09T00:22:17;10.20;;;4.05;;
48987;SDS011;34799;51.440;-2.534;2023-10-09T00:24:54;9.40;;;3.85;;
48987;SDS011;34799;51.440;-2.534;2023-10-09T00:27:39;8.82;;;4.35;;
48987;SDS011;34799;51.440;-2.534;2023-10-09T00:30:18;7.40;;;3.65;;
48987;SDS011;34799;51.440;-2.534;2023-10-09T00:32:47;7.53;;;3.70;;
48987;SDS011;34799;51.440;-2.534;2023-10-09T00:38:10;10.15;;;4.00;;
48987;SDS011;34799;51.440;-2.534;2023-10-09T00:40:58;8.13;;;4.15;;
48987;SDS011;34799;51.440;-2.534;2023-10-09T00:43:34;8.43;;;4.40;;
48987;SDS011;34799;51.440;-2.534;2023-10-09T00:46:04;11.63;;;4.32;;
48987;SDS011;34799;51.440;-2.534;2023-10-09T00:48:39;10.30;;;4.30;;
48987;SDS011;34799;51.440;-2.534;2023-10-09T00:51:07;6.53;;;4.00;;
48987;SDS011;34799;51.440;-2.534;2023-10-09T00:53:46;11.40;;;4.30;;
48987;SDS011;34799;51.440;-2.534;2023-10-09T00:56:19;11.05;;;4.22;;
48987;SDS011;34799;51.440;-2.534;2023-10-09T00:58:53;8.13;;;4.10;;
48987;SDS011;34799;51.440;-2.534;2023-10-09T01:01:47;8.50;;;4.40;;
48987;SDS011;34799;51.440;-2.534;2023-10-09T01:04:33;9.77;;;4.07;;
48987;SDS011;34799;51.440;-2.534;2023-10-09T01:07:04;10.15;;;4.20;;
48987;SDS011;34799;51.440;-2.534;2023-10-09T01:09:57;9.30;;;4.70;;
48987;SDS011;34799;51.440;-2.534;2023-10-09T01:12:25;8.70;;;4.43;;
48987;SDS011;34799;51.440;-2.534;2023-10-09T01:14:55;9.63;;;4.15;;
48987;SDS011;34799;51.440;-2.534;2023-10-09T01:17:23;9.57;;;4.30;;
48987;SDS011;34799;51.440;-2.534;2023-10-09T01:20:02;9.00;;;4.15;;
48987;SDS011;34799;51.440;-2.534;2023-10-09T01:22:31;10.88;;;5.05;;
48987;SDS011;34799;51.440;-2.534;2023-10-09T01:24:58;10.00;;;4.35;;
48987;SDS011;34799;51.440;-2.534;2023-10-09T01:27:25;9.73;;;4.32;;
48987;SDS011;34799;51.440;-2.534;2023-10-09T01:29:59;10.60;;;4.28;;
48987;SDS011;34799;51.440;-2.534;2023-10-09T01:32:28;8.25;;;4.43;;
48987;SDS011;34799;51.440;-2.534;2023-10-09T01:34:56;11.50;;;4.22;;
48987;SDS011;34799;51.440;-2.534;2023-10-09T01:37:24;9.15;;;4.35;;
48987;SDS011;34799;51.440;-2.534;2023-10-09T01:39:58;8.88;;;3.85;;
48987;SDS011;34799;51.440;-2.534;2023-10-09T01:42:42;7.97;;;4.47;;
48987;SDS011;34799;51.440;-2.534;2023-10-09T01:45:12;7.93;;;3.35;;
48987;SDS011;34799;51.440;-2.534;2023-10-09T01:47:39;8.60;;;3.85;;
48987;SDS011;34799;51.440;-2.534;2023-10-09T01:50:06;10.20;;;4.45;;
48987;SDS011;34799;51.440;-2.534;2023-10-09T01:52:48;12.43;;;4.00;;
48987;SDS011;34799;51.440;-2.534;2023-10-09T01:55:18;9.45;;;4.10;;
48987;SDS011;34799;51.440;-2.534;2023-10-09T01:58:15;8.23;;;4.30;;
48987;SDS011;34799;51.440;-2.534;2023-10-09T02:00:50;8.13;;;4.28;;
48987;SDS011;34799;51.440;-2.534;2023-10-09T02:03:22;9.98;;;4.05;;
48987;SDS011;34799;51.440;-2.534;2023-10-09T02:05:53;9.40;;;4.40;;
48987;SDS011;34799;51.440;-2.534;2023-10-09T02:08:26;10.27;;;4.03;;
48987;SDS011;34799;51.440;-2.534;2023-10-09T02:11:02;10.15;;;4.68;;
48987;SDS011;34799;51.440;-2.534;2023-10-09T02:13:30;9.32;;;4.47;;
48987;SDS011;34799;51.440;-2.534;2023-10-09T02:16:01;9.27;;;4.45;;
48987;SDS011;34799;51.440;-2.534;2023-10-09T02:18:42;7.90;;;4.57;;
48987;SDS011;34799;51.440;-2.534;2023-10-09T02:21:25;10.75;;;4.20;;
48987;SDS011;34799;51.440;-2.534;2023-10-09T02:23:57;8.60;;;4.15;;
48987;SDS011;34799;51.440;-2.534;2023-10-09T02:26:29;9.32;;;4.50;;
48987;SDS011;34799;51.440;-2.534;2023-10-09T02:29:13;8.93;;;4.53;;
48987;SDS011;34799;51.440;-2.534;2023-10-09T02:31:41;9.75;;;4.85;;
48987;SDS011;34799;51.440;-2.534;2023-10-09T02:34:12;10.27;;;5.30;;
48987;SDS011;34799;51.440;-2.534;2023-10-09T02:36:42;10.10;;;4.65;;
48987;SDS011;34799;51.440;-2.534;2023-10-09T02:39:16;10.27;;;4.70;;
48987;SDS011;34799;51.440;-2.534;2023-10-09T02:42:00;9.65;;;4.57;;
48987;SDS011;34799;51.440;-2.534;2023-10-09T02:44:32;7.93;;;4.30;;
48987;SDS011;34799;51.440;-2.534;2023-10-09T02:47:06;9.65;;;4.93;;
48987;SDS011;34799;51.440;-2.534;2023-10-09T02:49:44;10.18;;;5.05;;
48987;SDS011;34799;51.440;-2.534;2023-10-09T02:52:14;11.57;;;5.60;;
48987;SDS011;34799;51.440;-2.534;2023-10-09T02:54:45;10.57;;;5.10;;
48987;SDS011;34799;51.440;-2.534;2023-10-09T02:57:27;8.88;;;4.90;;
48987;SDS011;34799;51.440;-2.534;2023-10-09T03:00:04;10.00;;;4.47;;
48987;SDS011;34799;51.440;-2.534;2023-10-09T03:02:55;9.82;;;5.28;;
48987;SDS011;34799;51.440;-2.534;2023-10-09T03:05:24;15.52;;;4.95;;
48987;SDS011;34799;51.440;-2.534;2023-10-09T03:07:56;10.18;;;5.32;;
48987;SDS011;34799;51.440;-2.534;2023-10-09T03:10:24;13.00;;;6.32;;
48987;SDS011;34799;51.440;-2.534;2023-10-09T03:12:52;12.27;;;6.50;;
48987;SDS011;34799;51.440;-2.534;2023-10-09T03:15:21;15.45;;;6.07;;
48987;SDS011;34799;51.440;-2.534;2023-10-09T03:17:50;12.38;;;5.65;;
48987;SDS011;34799;51.440;-2.534;2023-10-09T03:20:18;11.57;;;5.28;;
48987;SDS011;34799;51.440;-2.534;2023-10-09T03:22:46;12.48;;;5.78;;
48987;SDS011;34799;51.440;-2.534;2023-10-09T03:25:16;13.20;;;5.70;;
48987;SDS011;34799;51.440;-2.534;2023-10-09T03:27:46;11.60;;;4.97;;
48987;SDS011;34799;51.440;-2.534;2023-10-09T03:30:14;12.18;;;5.30;;
48987;SDS011;34799;51.440;-2.534;2023-10-09T03:32:44;10.57;;;4.57;;
48987;SDS011;34799;51.440;-2.534;2023-10-09T03:35:19;8.75;;;4.90;;
48987;SDS011;34799;51.440;-2.534;2023-10-09T03:37:55;10.45;;;4.45;;
48987;SDS011;34799;51.440;-2.534;2023-10-09T03:40:42;11.45;;;5.13;;
48987;SDS011;34799;51.440;-2.534;2023-10-09T03:43:10;12.50;;;5.50;;
48987;SDS011;34799;51.440;-2.534;2023-10-09T03:45:38;11.57;;;5.38;;
48987;SDS011;34799;51.440;-2.534;2023-10-09T03:48:13;12.95;;;4.55;;
48987;SDS011;34799;51.440;-2.534;2023-10-09T03:50:49;10.13;;;4.43;;
48987;SDS011;34799;51.440;-2.534;2023-10-09T03:53:35;19.40;;;9.95;;
48987;SDS011;34799;51.440;-2.534;2023-10-09T03:56:09;22.10;;;10.68;;
48987;SDS011;34799;51.440;-2.534;2023-10-09T03:58:39;23.70;;;12.15;;
48987;SDS011;34799;51.440;-2.534;2023-10-09T04:01:09;24.60;;;13.32;;
48987;SDS011;34799;51.440;-2.534;2023-10-09T04:03:44;27.45;;;14.10;;
48987;SDS011;34799;51.440;-2.534;2023-10-09T04:06:11;33.92;;;15.18;;
48987;SDS011;34799;51.440;-2.534;2023-10-09T04:08:38;27.60;;;13.43;;
48987;SDS011;34799;51.440;-2.534;2023-10-09T04:11:14;27.00;;;12.90;;
48987;SDS011;34799;51.440;-2.534;2023-10-09T04:13:50;27.73;;;13.40;;
48987;SDS011;34799;51.440;-2.534;2023-10-09T04:16:19;29.08;;;14.20;;
48987;SDS011;34799;51.440;-2.534;2023-10-09T04:18:59;26.65;;;15.18;;
48987;SDS011;34799;51.440;-2.534;2023-10-09T04:21:34;33.83;;;16.70;;
48987;SDS011;34799;51.440;-2.534;2023-10-09T04:24:05;33.08;;;17.02;;
48987;SDS011;34799;51.440;-2.534;2023-10-09T04:26:50;31.65;;;16.70;;
48987;SDS011;34799;51.440;-2.534;2023-10-09T04:29:25;36.65;;;16.92;;
48987;SDS011;34799;51.440;-2.534;2023-10-09T04:31:56;35.63;;;18.33;;
48987;SDS011;34799;51.440;-2.534;2023-10-09T04:34:27;38.38;;;19.02;;
48987;SDS011;34799;51.440;-2.534;2023-10-09T04:36:57;42.38;;;18.17;;
48987;SDS011;34799;51.440;-2.534;2023-10-09T04:39:27;44.00;;;18.05;;
48987;SDS011;34799;51.440;-2.534;2023-10-09T04:41:58;45.90;;;19.02;;
48987;SDS011;34799;51.440;-2.534;2023-10-09T04:45:05;44.00;;;19.13;;
48987;SDS011;34799;51.440;-2.534;2023-10-09T04:47:34;45.20;;;19.40;;
48987;SDS011;34799;51.440;-2.534;2023-10-09T04:52:36;51.28;;;18.25;;
48987;SDS011;34799;51.440;-2.534;2023-10-09T04:55:03;39.72;;;18.33;;
48987;SDS011;34799;51.440;-2.534;2023-10-09T04:57:34;46.25;;;18.45;;
48987;SDS011;34799;51.440;-2.534;2023-10-09T05:00:17;44.67;;;19.02;;
48987;SDS011;34799;51.440;-2.534;2023-10-09T05:02:51;44.95;;;18.95;;
48987;SDS011;34799;51.440;-2.534;2023-10-09T05:05:25;53.38;;;19.65;;
48987;SDS011;34799;51.440;-2.534;2023-10-09T05:08:15;47.53;;;18.73;;
48987;SDS011;34799;51.440;-2.534;2023-10-09T05:10:57;50.03;;;20.60;;
48987;SDS011;34799;51.440;-2.534;2023-10-09T05:13:31;45.42;;;18.45;;
48987;SDS011;34799;51.440;-2.534;2023-10-09T05:16:07;50.00;;;20.70;;
48987;SDS011;34799;51.440;-2.534;2023-10-09T05:18:45;44.72;;;20.67;;
48987;SDS011;34799;51.440;-2.534;2023-10-09T05:21:23;47.05;;;20.67;;
48987;SDS011;34799;51.440;-2.534;2023-10-09T05:24:12;44.28;;;20.00;;
48987;SDS011;34799;51.440;-2.534;2023-10-09T05:26:42;45.15;;;20.15;;
48987;SDS011;34799;51.440;-2.534;2023-10-09T05:29:13;49.03;;;20.65;;
48987;SDS011;34799;51.440;-2.534;2023-10-09T05:32:01;45.33;;;21.20;;
48987;SDS011;34799;51.440;-2.534;2023-10-09T05:34:42;47.15;;;21.48;;
48987;SDS011;34799;51.440;-2.534;2023-10-09T05:37:32;46.10;;;20.50;;
48987;SDS011;34799;51.440;-2.534;2023-10-09T05:42:31;40.35;;;19.42;;
48987;SDS011;34799;51.440;-2.534;2023-10-09T05:45:09;37.63;;;19.23;;
48987;SDS011;34799;51.440;-2.534;2023-10-09T05:47:44;36.55;;;17.88;;
48987;SDS011;34799;51.440;-2.534;2023-10-09T05:50:23;38.15;;;18.50;;
48987;SDS011;34799;51.440;-2.534;2023-10-09T05:52:55;34.75;;;16.83;;
48987;SDS011;34799;51.440;-2.534;2023-10-09T05:55:30;37.45;;;17.75;;
48987;SDS011;34799;51.440;-2.534;2023-10-09T05:58:04;42.23;;;19.13;;
48987;SDS011;34799;51.440;-2.534;2023-10-09T06:00:50;35.80;;;17.17;;
48987;SDS011;34799;51.440;-2.534;2023-10-09T06:03:36;36.00;;;16.80;;
48987;SDS011;34799;51.440;-2.534;2023-10-09T06:06:15;34.72;;;16.75;;
48987;SDS011;34799;51.440;-2.534;2023-10-09T06:09:00;33.20;;;16.42;;
48987;SDS011;34799;51.440;-2.534;2023-10-09T06:11:45;32.72;;;16.02;;
48987;SDS011;34799;51.440;-2.534;2023-10-09T06:14:38;30.52;;;15.93;;
48987;SDS011;34799;51.440;-2.534;2023-10-09T06:17:05;33.47;;;15.90;;
48987;SDS011;34799;51.440;-2.534;2023-10-09T06:19:53;34.55;;;16.60;;
48987;SDS011;34799;51.440;-2.534;2023-10-09T06:22:46;35.72;;;16.33;;
48987;SDS011;34799;51.440;-2.534;2023-10-09T06:25:24;33.30;;;15.98;;
48987;SDS011;34799;51.440;-2.534;2023-10-09T06:28:00;35.08;;;16.77;;
48987;SDS011;34799;51.440;-2.534;2023-10-09T06:30:28;32.33;;;17.38;;
48987;SDS011;34799;51.440;-2.534;2023-10-09T06:33:01;32.80;;;16.25;;
48987;SDS011;34799;51.440;-2.534;2023-10-09T06:35:46;35.85;;;16.40;;
48987;SDS011;34799;51.440;-2.534;2023-10-09T06:38:23;38.40;;;16.83;;
48987;SDS011;34799;51.440;-2.534;2023-10-09T06:41:00;33.17;;;16.58;;
48987;SDS011;34799;51.440;-2.534;2023-10-09T06:43:30;36.15;;;16.38;;
48987;SDS011;34799;51.440;-2.534;2023-10-09T06:45:58;39.97;;;17.02;;
48987;SDS011;34799;51.440;-2.534;2023-10-09T06:48:45;37.40;;;16.85;;
48987;SDS011;34799;51.440;-2.534;2023-10-09T06:51:22;32.38;;;15.68;;
48987;SDS011;34799;51.440;-2.534;2023-10-09T06:53:52;33.08;;;15.70;;
48987;SDS011;34799;51.440;-2.534;2023-10-09T06:58:57;33.30;;;15.77;;
48987;SDS011;34799;51.440;-2.534;2023-10-09T07:01:31;31.55;;;14.02;;
48987;SDS011;34799;51.440;-2.534;2023-10-09T07:04:13;31.67;;;14.82;;
48987;SDS011;34799;51.440;-2.534;2023-10-09T07:07:06;32.53;;;14.90;;
48987;SDS011;34799;51.440;-2.534;2023-10-09T07:09:36;35.50;;;16.45;;
48987;SDS011;34799;51.440;-2.534;2023-10-09T07:12:10;36.20;;;15.18;;
48987;SDS011;34799;51.440;-2.534;2023-10-09T07:14:47;34.60;;;15.98;;
48987;SDS011;34799;51.440;-2.534;2023-10-09T07:17:17;38.38;;;16.10;;
48987;SDS011;34799;51.440;-2.534;2023-10-09T07:20:12;35.03;;;15.75;;
48987;SDS011;34799;51.440;-2.534;2023-10-09T07:22:40;40.50;;;15.77;;
48987;SDS011;34799;51.440;-2.534;2023-10-09T07:25:23;37.03;;;15.07;;
48987;SDS011;34799;51.440;-2.534;2023-10-09T07:28:22;30.88;;;15.23;;
48987;SDS011;34799;51.440;-2.534;2023-10-09T07:31:16;33.13;;;13.60;;
48987;SDS011;34799;51.440;-2.534;2023-10-09T07:33:51;29.30;;;15.13;;
48987;SDS011;34799;51.440;-2.534;2023-10-09T07:36:23;29.63;;;14.18;;
48987;SDS011;34799;51.440;-2.534;2023-10-09T07:39:01;27.90;;;13.60;;
48987;SDS011;34799;51.440;-2.534;2023-10-09T07:41:40;31.40;;;13.98;;
48987;SDS011;34799;51.440;-2.534;2023-10-09T07:44:13;30.38;;;14.00;;
48987;SDS011;34799;51.440;-2.534;2023-10-09T07:47:00;31.20;;;14.05;;
48987;SDS011;34799;51.440;-2.534;2023-10-09T07:49:47;28.80;;;14.15;;
48987;SDS011;34799;51.440;-2.534;2023-10-09T07:52:20;27.63;;;13.00;;
48987;SDS011;34799;51.440;-2.534;2023-10-09T07:54:49;27.63;;;12.98;;
48987;SDS011;34799;51.440;-2.534;2023-10-09T07:57:20;28.25;;;12.27;;
48987;SDS011;34799;51.440;-2.534;2023-10-09T07:59:55;28.37;;;13.00;;
48987;SDS011;34799;51.440;-2.534;2023-10-09T08:02:38;28.90;;;12.75;;
48987;SDS011;34799;51.440;-2.534;2023-10-09T08:05:06;26.00;;;11.85;;
48987;SDS011;34799;51.440;-2.534;2023-10-09T08:07:48;24.70;;;12.68;;
48987;SDS011;34799;51.440;-2.534;2023-10-09T08:10:24;30.25;;;11.52;;
48987;SDS011;34799;51.440;-2.534;2023-10-09T08:12:51;23.10;;;11.23;;
48987;SDS011;34799;51.440;-2.534;2023-10-09T08:15:25;26.35;;;11.90;;
48987;SDS011;34799;51.440;-2.534;2023-10-09T08:18:19;26.75;;;12.15;;
48987;SDS011;34799;51.440;-2.534;2023-10-09T08:20:54;24.65;;;12.05;;
48987;SDS011;34799;51.440;-2.534;2023-10-09T08:23:27;28.17;;;11.98;;
48987;SDS011;34799;51.440;-2.534;2023-10-09T08:26:01;25.80;;;11.73;;
48987;SDS011;34799;51.440;-2.534;2023-10-09T08:28:41;25.35;;;12.13;;
48987;SDS011;34799;51.440;-2.534;2023-10-09T08:31:13;25.77;;;11.80;;
48987;SDS011;34799;51.440;-2.534;2023-10-09T08:34:00;30.40;;;11.93;;
48987;SDS011;34799;51.440;-2.534;2023-10-09T08:36:31;21.85;;;11.23;;
48987;SDS011;34799;51.440;-2.534;2023-10-09T08:39:04;23.90;;;11.13;;
48987;SDS011;34799;51.440;-2.534;2023-10-09T08:41:43;24.55;;;11.25;;
48987;SDS011;34799;51.440;-2.534;2023-10-09T08:44:11;25.17;;;12.00;;
48987;SDS011;34799;51.440;-2.534;2023-10-09T08:46:42;26.75;;;13.30;;
48987;SDS011;34799;51.440;-2.534;2023-10-09T08:49:12;32.15;;;14.90;;
48987;SDS011;34799;51.440;-2.534;2023-10-09T08:51:41;29.83;;;13.55;;
48987;SDS011;34799;51.440;-2.534;2023-10-09T08:54:09;29.48;;;12.73;;
48987;SDS011;34799;51.440;-2.534;2023-10-09T08:56:38;25.35;;;13.77;;
48987;SDS011;34799;51.440;-2.534;2023-10-09T08:59:06;28.70;;;12.88;;
48987;SDS011;34799;51.440;-2.534;2023-10-09T09:01:33;27.02;;;12.82;;
48987;SDS011;34799;51.440;-2.534;2023-10-09T09:04:00;28.92;;;13.90;;
48987;SDS011;34799;51.440;-2.534;2023-10-09T09:06:35;26.67;;;14.48;;
48987;SDS011;34799;51.440;-2.534;2023-10-09T09:11:43;34.38;;;12.77;;
48987;SDS011;34799;51.440;-2.534;2023-10-09T09:14:15;24.08;;;11.43;;
48987;SDS011;34799;51.440;-2.534;2023-10-09T09:16:46;27.00;;;13.10;;
48987;SDS011;34799;51.440;-2.534;2023-10-09T09:19:15;27.73;;;12.32;;
48987;SDS011;34799;51.440;-2.534;2023-10-09T09:21:52;34.15;;;12.45;;
48987;SDS011;34799;51.440;-2.534;2023-10-09T09:24:37;25.55;;;11.93;;
48987;SDS011;34799;51.440;-2.534;2023-10-09T09:27:06;26.58;;;12.25;;
48987;SDS011;34799;51.440;-2.534;2023-10-09T09:29:40;26.13;;;12.23;;
48987;SDS011;34799;51.440;-2.534;2023-10-09T09:32:09;27.70;;;11.98;;
48987;SDS011;34799;51.440;-2.534;2023-10-09T09:34:50;25.13;;;11.80;;
48987;SDS011;34799;51.440;-2.534;2023-10-09T09:37:24;24.00;;;11.27;;
48987;SDS011;34799;51.440;-2.534;2023-10-09T09:39:56;23.23;;;11.43;;
48987;SDS011;34799;51.440;-2.534;2023-10-09T09:42:28;20.73;;;10.77;;
48987;SDS011;34799;51.440;-2.534;2023-10-09T09:45:01;20.20;;;10.80;;
48987;SDS011;34799;51.440;-2.534;2023-10-09T09:47:30;19.80;;;10.15;;
48987;SDS011;34799;51.440;-2.534;2023-10-09T09:50:02;22.02;;;9.85;;
48987;SDS011;34799;51.440;-2.534;2023-10-09T09:52:39;20.60;;;9.13;;
48987;SDS011;34799;51.440;-2.534;2023-10-09T09:55:07;17.02;;;8.05;;
48987;SDS011;34799;51.440;-2.534;2023-10-09T09:57:49;15.38;;;6.80;;
48987;SDS011;34799;51.440;-2.534;2023-10-09T10:00:20;13.38;;;6.63;;
48987;SDS011;34799;51.440;-2.534;2023-10-09T10:03:16;13.98;;;7.20;;
48987;SDS011;34799;51.440;-2.534;2023-10-09T10:05:54;15.65;;;6.80;;
48987;SDS011;34799;51.440;-2.534;2023-10-09T10:08:23;16.60;;;7.00;;
48987;SDS011;34799;51.440;-2.534;2023-10-09T10:10:59;19.20;;;7.78;;
48987;SDS011;34799;51.440;-2.534;2023-10-09T10:16:12;13.30;;;6.22;;
48987;SDS011;34799;51.440;-2.534;2023-10-09T10:19:00;11.93;;;6.53;;
48987;SDS011;34799;51.440;-2.534;2023-10-09T10:21:38;15.55;;;5.68;;
48987;SDS011;34799;51.440;-2.534;2023-10-09T10:30:39;10.90;;;4.75;;
48987;SDS011;34799;51.440;-2.534;2023-10-09T10:32:59;13.13;;;4.78;;
48987;SDS011;34799;51.440;-2.534;2023-10-09T10:35:49;13.65;;;5.50;;
48987;SDS011;34799;51.440;-2.534;2023-10-09T10:38:29;10.18;;;5.35;;
48987;SDS011;34799;51.440;-2.534;2023-10-09T10:41:16;10.00;;;4.78;;
48987;SDS011;34799;51.440;-2.534;2023-10-09T10:43:44;9.23;;;4.22;;
48987;SDS011;34799;51.440;-2.534;2023-10-09T10:46:18;10.35;;;4.35;;
48987;SDS011;34799;51.440;-2.534;2023-10-09T10:51:49;11.35;;;3.90;;
48987;SDS011;34799;51.440;-2.534;2023-10-09T10:54:28;9.68;;;4.90;;
48987;SDS011;34799;51.440;-2.534;2023-10-09T10:57:19;12.77;;;4.03;;
48987;SDS011;34799;51.440;-2.534;2023-10-09T10:59:56;9.10;;;4.05;;
48987;SDS011;34799;51.440;-2.534;2023-10-09T11:02:44;8.27;;;4.53;;
48987;SDS011;34799;51.440;-2.534;2023-10-09T11:05:15;10.98;;;4.25;;
48987;SDS011;34799;51.440;-2.534;2023-10-09T11:07:57;11.25;;;3.63;;
48987;SDS011;34799;51.440;-2.534;2023-10-09T11:10:24;9.23;;;3.95;;
48987;SDS011;34799;51.440;-2.534;2023-10-09T11:12:56;9.00;;;4.60;;
48987;SDS011;34799;51.440;-2.534;2023-10-09T11:15:37;8.38;;;3.65;;
48987;SDS011;34799;51.440;-2.534;2023-10-09T11:18:14;7.82;;;3.97;;
48987;SDS011;34799;51.440;-2.534;2023-10-09T11:20:55;9.10;;;3.80;;
48987;SDS011;34799;51.440;-2.534;2023-10-09T11:23:30;11.80;;;4.72;;
48987;SDS011;34799;51.440;-2.534;2023-10-09T11:26:04;8.77;;;3.60;;
48987;SDS011;34799;51.440;-2.534;2023-10-09T11:29:11;10.48;;;3.50;;
48987;SDS011;34799;51.440;-2.534;2023-10-09T11:32:04;6.57;;;3.55;;
48987;SDS011;34799;51.440;-2.534;2023-10-09T11:34:33;7.43;;;3.78;;
48987;SDS011;34799;51.440;-2.534;2023-10-09T11:39:39;5.88;;;3.47;;
48987;SDS011;34799;51.440;-2.534;2023-10-09T11:42:24;7.82;;;3.15;;
48987;SDS011;34799;51.440;-2.534;2023-10-09T11:45:26;8.00;;;3.83;;
48987;SDS011;34799;51.440;-2.534;2023-10-09T11:48:17;6.60;;;3.10;;
48987;SDS011;34799;51.440;-2.534;2023-10-09T11:50:57;8.90;;;3.50;;
48987;SDS011;34799;51.440;-2.534;2023-10-09T11:53:44;11.18;;;3.67;;
48987;SDS011;34799;51.440;-2.534;2023-10-09T11:56:21;8.70;;;3.67;;
48987;SDS011;34799;51.440;-2.534;2023-10-09T11:58:49;9.25;;;3.30;;
48987;SDS011;34799;51.440;-2.534;2023-10-09T12:01:19;7.88;;;3.38;;
48987;SDS011;34799;51.440;-2.534;2023-10-09T12:03:48;7.85;;;2.88;;
48987;SDS011;34799;51.440;-2.534;2023-10-09T12:06:17;6.15;;;3.00;;
48987;SDS011;34799;51.440;-2.534;2023-10-09T12:08:59;8.68;;;2.95;;
48987;SDS011;34799;51.440;-2.534;2023-10-09T12:11:27;10.70;;;3.10;;
48987;SDS011;34799;51.440;-2.534;2023-10-09T12:13:57;6.68;;;3.42;;
48987;SDS011;34799;51.440;-2.534;2023-10-09T12:16:27;8.75;;;3.67;;
48987;SDS011;34799;51.440;-2.534;2023-10-09T12:18:54;8.07;;;3.05;;
48987;SDS011;34799;51.440;-2.534;2023-10-09T12:21:22;8.95;;;3.40;;
48987;SDS011;34799;51.440;-2.534;2023-10-09T12:23:50;8.05;;;3.15;;
48987;SDS011;34799;51.440;-2.534;2023-10-09T12:26:17;6.28;;;3.22;;
48987;SDS011;34799;51.440;-2.534;2023-10-09T12:28:44;5.50;;;2.72;;
48987;SDS011;34799;51.440;-2.534;2023-10-09T12:31:16;6.38;;;2.67;;
48987;SDS011;34799;51.440;-2.534;2023-10-09T12:33:47;6.22;;;3.60;;
48987;SDS011;34799;51.440;-2.534;2023-10-09T12:36:16;9.70;;;2.95;;
48987;SDS011;34799;51.440;-2.534;2023-10-09T12:38:46;7.13;;;2.92;;
48987;SDS011;34799;51.440;-2.534;2023-10-09T12:41:19;5.68;;;2.78;;
48987;SDS011;34799;51.440;-2.534;2023-10-09T12:43:52;5.15;;;2.35;;
48987;SDS011;34799;51.440;-2.534;2023-10-09T12:46:19;6.57;;;2.55;;
48987;SDS011;34799;51.440;-2.534;2023-10-09T12:48:49;7.03;;;2.70;;
48987;SDS011;34799;51.440;-2.534;2023-10-09T12:51:16;6.15;;;2.30;;
48987;SDS011;34799;51.440;-2.534;2023-10-09T12:53:44;9.18;;;2.88;;
48987;SDS011;34799;51.440;-2.534;2023-10-09T12:56:15;5.22;;;2.40;;
48987;SDS011;34799;51.440;-2.534;2023-10-09T12:58:45;6.57;;;2.70;;
48987;SDS011;34799;51.440;-2.534;2023-10-09T13:01:19;6.20;;;2.45;;
48987;SDS011;34799;51.440;-2.534;2023-10-09T13:03:47;8.57;;;2.63;;
48987;SDS011;34799;51.440;-2.534;2023-10-09T13:06:17;9.70;;;2.78;;
48987;SDS011;34799;51.440;-2.534;2023-10-09T13:08:51;5.68;;;2.67;;
48987;SDS011;34799;51.440;-2.534;2023-10-09T13:11:19;5.60;;;2.20;;
48987;SDS011;34799;51.440;-2.534;2023-10-09T13:13:47;9.75;;;3.17;;
48987;SDS011;34799;51.440;-2.534;2023-10-09T13:16:21;6.85;;;2.60;;
48987;SDS011;34799;51.440;-2.534;2023-10-09T13:18:54;6.70;;;2.63;;
48987;SDS011;34799;51.440;-2.534;2023-10-09T13:21:23;5.95;;;2.42;;
48987;SDS011;34799;51.440;-2.534;2023-10-09T13:24:05;6.75;;;2.45;;
48987;SDS011;34799;51.440;-2.534;2023-10-09T13:26:51;7.85;;;2.33;;
48987;SDS011;34799;51.440;-2.534;2023-10-09T13:29:20;5.72;;;2.80;;
48987;SDS011;34799;51.440;-2.534;2023-10-09T13:31:50;6.85;;;2.75;;
48987;SDS011;34799;51.440;-2.534;2023-10-09T13:36:55;8.00;;;2.80;;
48987;SDS011;34799;51.440;-2.534;2023-10-09T13:39:25;6.70;;;1.88;;
48987;SDS011;34799;51.440;-2.534;2023-10-09T13:41:57;4.65;;;1.98;;
48987;SDS011;34799;51.440;-2.534;2023-10-09T13:44:33;4.35;;;1.98;;
48987;SDS011;34799;51.440;-2.534;2023-10-09T13:47:01;5.30;;;2.40;;
48987;SDS011;34799;51.440;-2.534;2023-10-09T13:49:32;6.25;;;2.70;;
48987;SDS011;34799;51.440;-2.534;2023-10-09T13:52:01;4.28;;;2.00;;
48987;SDS011;34799;51.440;-2.534;2023-10-09T13:54:30;10.25;;;2.42;;
48987;SDS011;34799;51.440;-2.534;2023-10-09T13:57:01;7.10;;;2.15;;
48987;SDS011;34799;51.440;-2.534;2023-10-09T13:59:35;7.80;;;2.60;;
48987;SDS011;34799;51.440;-2.534;2023-10-09T14:02:09;9.32;;;2.58;;
48987;SDS011;34799;51.440;-2.534;2023-10-09T14:04:43;7.47;;;2.65;;
48987;SDS011;34799;51.440;-2.534;2023-10-09T14:07:11;6.03;;;2.30;;
48987;SDS011;34799;51.440;-2.534;2023-10-09T14:09:43;7.95;;;2.60;;
48987;SDS011;34799;51.440;-2.534;2023-10-09T14:12:10;11.85;;;2.60;;
48987;SDS011;34799;51.440;-2.534;2023-10-09T14:14:42;7.07;;;2.38;;
48987;SDS011;34799;51.440;-2.534;2023-10-09T14:17:22;7.82;;;2.83;;
48987;SDS011;34799;51.440;-2.534;2023-10-09T14:19:56;4.25;;;2.15;;
48987;SDS011;34799;51.440;-2.534;2023-10-09T14:22:47;5.88;;;1.88;;
48987;SDS011;34799;51.440;-2.534;2023-10-09T14:25:20;5.43;;;1.60;;
48987;SDS011;34799;51.440;-2.534;2023-10-09T14:27:48;6.90;;;1.48;;
48987;SDS011;34799;51.440;-2.534;2023-10-09T14:30:19;5.13;;;2.05;;
48987;SDS011;34799;51.440;-2.534;2023-10-09T14:32:57;5.20;;;1.95;;
48987;SDS011;34799;51.440;-2.534;2023-10-09T14:35:24;5.22;;;1.85;;
48987;SDS011;34799;51.440;-2.534;2023-10-09T14:37:56;3.80;;;1.77;;
48987;SDS011;34799;51.440;-2.534;2023-10-09T14:40:24;3.45;;;1.88;;
48987;SDS011;34799;51.440;-2.534;2023-10-09T14:42:57;4.65;;;1.90;;
48987;SDS011;34799;51.440;-2.534;2023-10-09T14:45:25;7.13;;;1.95;;
48987;SDS011;34799;51.440;-2.534;2023-10-09T14:47:53;6.68;;;2.00;;
48987;SDS011;34799;51.440;-2.534;2023-10-09T14:50:21;5.22;;;1.83;;
48987;SDS011;34799;51.440;-2.534;2023-10-09T14:52:50;5.32;;;1.80;;
48987;SDS011;34799;51.440;-2.534;2023-10-09T14:55:18;4.97;;;1.77;;
48987;SDS011;34799;51.440;-2.534;2023-10-09T14:57:48;4.30;;;2.03;;
48987;SDS011;34799;51.440;-2.534;2023-10-09T15:00:16;5.55;;;2.25;;
48987;SDS011;34799;51.440;-2.534;2023-10-09T15:02:50;4.80;;;1.77;;
48987;SDS011;34799;51.440;-2.534;2023-10-09T15:05:19;5.78;;;1.70;;
48987;SDS011;34799;51.440;-2.534;2023-10-09T15:07:49;6.07;;;2.03;;
48987;SDS011;34799;51.440;-2.534;2023-10-09T15:10:16;3.75;;;1.58;;
48987;SDS011;34799;51.440;-2.534;2023-10-09T15:12:44;6.60;;;1.75;;
48987;SDS011;34799;51.440;-2.534;2023-10-09T15:15:15;7.15;;;2.00;;
48987;SDS011;34799;51.440;-2.534;2023-10-09T15:17:43;5.60;;;1.73;;
48987;SDS011;34799;51.440;-2.534;2023-10-09T15:20:12;6.35;;;1.90;;
48987;SDS011;34799;51.440;-2.534;2023-10-09T15:22:44;3.63;;;1.95;;
48987;SDS011;34799;51.440;-2.534;2023-10-09T15:25:13;7.70;;;2.22;;
48987;SDS011;34799;51.440;-2.534;2023-10-09T15:38:17;10.70;;;2.50;;
48987;SDS011;34799;51.440;-2.534;2023-10-09T15:40:47;6.03;;;2.15;;
48987;SDS011;34799;51.440;-2.534;2023-10-09T15:43:15;6.43;;;2.20;;
48987;SDS011;34799;51.440;-2.534;2023-10-09T15:45:44;5.35;;;2.55;;